Bay Harbor Islands, Florida
Current Conditions -  °F | °C
As of 8:53 AM on Monday 20 Oct 2014 (Local Time) from KOPF Reporting Station
Clear Clear  
Wind Chill: 79°   Ceiling: Unl
Heat Index: 81°   Visibility: 10mi
Dew Point: 67°   Wind: 5mph
Humidity: 66%   Direction: 80°E
Pressure: 30.02"   Gusts: NA
Location:  25.882°N, 80.1292°W
Report Text: KOPF 201253Z 08004KT 10SM CLR 26/19 A3002 RMK AO2 SLP166 T02610194
Loading
Personal Weather Stations






























Interactive Weather Map
Tropical Storm Tracking
New forecast layout! Learn more

10-Day Weather Forecast

Advertisements
Track Severe Weather on mobile